Time;durP1;ratioP1;P1;durP2;ratioP2;P2;SDS_P1;SDS_P2;PMS_P1;PMS_P2;Temp;Humidity;BMP_temperature;BMP_pressure;BME280_temperature;BME280_humidity;BME280_pressure;Samples;Min_cycle;Max_cycle;Signal;HPM_P1;HPM_P2
2023/06/30 00:09:29;;;;;;;1.35;0.80;;;;;;;20.90;85.49;101086.19;20978426;28;20076;-66
2023/06/30 00:19:30;;;;;;;1.85;1.00;;;;;;;20.88;85.19;101080.06;20902044;28;20049;-66
2023/06/30 00:29:32;;;;;;;1.30;0.93;;;;;;;20.87;84.91;101072.94;20921563;28;20079;-66
2023/06/30 00:39:33;;;;;;;1.20;0.70;;;;;;;20.87;84.62;101064.84;20970279;28;20092;-66
2023/06/30 00:49:36;;;;;;;2.10;0.90;;;;;;;20.85;84.24;101056.84;20968343;28;20062;-66
2023/06/30 00:59:37;;;;;;;1.63;0.82;;;;;;;20.85;83.88;101053.31;20987520;28;20048;-66
2023/06/30 01:09:44;;;;;;;1.75;0.93;;;;;;;20.80;83.42;101048.34;20899762;28;20045;-66
2023/06/30 01:19:48;;;;;;;1.80;0.80;;;;;;;20.84;83.18;101051.59;20900626;28;20045;-66
2023/06/30 01:29:51;;;;;;;1.85;0.90;;;;;;;20.81;82.98;101052.75;20907812;28;20051;-66
2023/06/30 01:39:53;;;;;;;1.77;0.90;;;;;;;20.77;82.22;101047.75;21047970;28;20048;-66
2023/06/30 01:49:55;;;;;;;2.13;1.00;;;;;;;20.79;81.77;101054.75;20991213;28;20076;-66
2023/06/30 01:59:57;;;;;;;0.80;0.60;;;;;;;20.77;81.32;101054.03;20880579;28;20144;-66
2023/06/30 02:09:59;;;;;;;0.75;0.70;;;;;;;20.76;81.01;101049.63;20898188;28;20701;-66
2023/06/30 02:20:04;;;;;;;1.57;0.70;;;;;;;20.68;80.53;101039.53;20893908;28;20040;-66
2023/06/30 02:30:08;;;;;;;1.80;0.70;;;;;;;20.73;80.09;101047.22;20920553;28;20048;-66
2023/06/30 02:40:10;;;;;;;1.75;1.00;;;;;;;20.70;79.52;101045.66;21023302;28;20607;-66
2023/06/30 02:50:11;;;;;;;1.25;0.75;;;;;;;20.67;79.00;101045.97;21037864;28;20048;-66
2023/06/30 03:00:15;;;;;;;1.45;0.73;;;;;;;20.66;78.37;101044.25;20968606;28;20139;-66
2023/06/30 03:10:17;;;;;;;1.13;0.60;;;;;;;20.63;77.83;101041.88;20908083;28;20052;-66
2023/06/30 03:20:19;;;;;;;0.75;0.70;;;;;;;20.62;77.29;101047.44;20907871;28;20045;-66
2023/06/30 03:30:20;;;;;;;2.42;0.90;;;;;;;20.59;76.80;101045.88;20919225;28;20036;-66
2023/06/30 03:40:22;;;;;;;1.60;0.70;;;;;;;20.58;76.40;101041.47;20990327;28;20064;-66
2023/06/30 03:50:24;;;;;;;0.98;0.82;;;;;;;20.56;76.14;101047.03;20976861;28;20071;-66
2023/06/30 04:00:25;;;;;;;1.42;0.68;;;;;;;20.56;75.90;101043.47;20905387;28;20461;-66
2023/06/30 04:10:27;;;;;;;1.17;0.68;;;;;;;20.53;75.78;101041.06;20905196;28;20518;-66
2023/06/30 04:20:29;;;;;;;1.20;0.70;;;;;;;20.51;75.66;101043.06;20967955;28;20075;-66
2023/06/30 04:30:30;;;;;;;1.10;0.65;;;;;;;20.50;75.36;101041.38;20975468;28;20041;-66
2023/06/30 04:40:32;;;;;;;0.95;0.60;;;;;;;20.49;75.16;101036.97;20945583;28;20063;-66
2023/06/30 04:50:35;;;;;;;1.23;0.60;;;;;;;20.48;75.09;101037.97;20983716;28;20044;-66
2023/06/30 05:00:36;;;;;;;0.90;0.57;;;;;;;20.46;75.09;101035.41;20940764;28;20056;-66
2023/06/30 05:10:38;;;;;;;1.33;0.70;;;;;;;20.47;75.04;101041.69;20948223;28;20072;-66
2023/06/30 05:20:40;;;;;;;2.50;0.70;;;;;;;20.46;75.13;101038.09;20948419;28;20052;-66
2023/06/30 05:30:41;;;;;;;1.88;0.70;;;;;;;20.46;75.09;101045.38;20913867;28;20448;-66
2023/06/30 05:40:43;;;;;;;1.02;0.70;;;;;;;20.45;76.08;101046.38;20925937;28;20421;-66
2023/06/30 05:50:45;;;;;;;1.73;0.80;;;;;;;20.48;76.98;101054.19;20956207;28;20048;-67
2023/06/30 06:00:47;;;;;;;1.58;0.70;;;;;;;20.52;78.61;101051.03;20962979;28;20044;-66
2023/06/30 06:10:48;;;;;;;0.93;0.60;;;;;;;20.61;80.44;101060.09;20953721;28;20039;-67
2023/06/30 06:20:50;;;;;;;1.77;0.75;;;;;;;20.68;81.81;101054.94;20977180;28;20057;-66
2023/06/30 06:30:52;;;;;;;1.67;0.80;;;;;;;20.72;82.26;101067.16;20963445;28;20056;-66
2023/06/30 06:40:53;;;;;;;3.75;0.90;;;;;;;20.75;82.29;101076.81;20948383;28;20055;-66
2023/06/30 06:50:56;;;;;;;2.75;0.93;;;;;;;20.76;81.91;101075.81;20960063;28;20053;-66
2023/06/30 07:00:58;;;;;;;1.30;0.75;;;;;;;20.77;81.76;101075.66;20969057;28;20449;-66
2023/06/30 07:11:01;;;;;;;2.90;0.90;;;;;;;20.80;81.33;101074.56;20985444;28;20095;-66
2023/06/30 07:21:03;;;;;;;3.97;0.90;;;;;;;20.82;81.06;101057.16;20987613;28;20127;-66
2023/06/30 07:31:05;;;;;;;1.40;0.77;;;;;;;20.88;80.52;101066.53;20938812;28;20072;-66
2023/06/30 07:41:06;;;;;;;1.33;0.68;;;;;;;20.90;79.86;101064.53;21002891;28;20056;-66
2023/06/30 07:51:08;;;;;;;1.67;0.90;;;;;;;20.90;79.20;101059.13;20973029;28;20506;-66
2023/06/30 08:01:10;;;;;;;1.30;0.65;;;;;;;20.91;79.11;101052.69;20968968;28;20052;-66
2023/06/30 08:11:12;;;;;;;1.13;0.60;;;;;;;20.97;79.03;101052.09;20987281;28;20048;-66
2023/06/30 08:21:14;;;;;;;2.83;1.20;;;;;;;21.06;78.88;101057.56;20986630;28;20524;-66
2023/06/30 08:31:15;;;;;;;1.92;0.73;;;;;;;21.08;79.66;101055.56;20958018;28;20075;-66
2023/06/30 08:41:18;;;;;;;3.15;1.10;;;;;;;21.19;79.53;101054.50;20953814;28;20091;-66
2023/06/30 08:51:19;;;;;;;2.30;0.80;;;;;;;21.23;79.27;101050.47;20887214;28;20114;-66
2023/06/30 09:01:22;;;;;;;1.75;0.70;;;;;;;21.22;79.22;101051.47;20906774;28;20029;-67
2023/06/30 09:11:24;;;;;;;2.05;0.80;;;;;;;21.32;79.19;101037.88;20911884;28;20048;-67
2023/06/30 09:21:26;;;;;;;1.35;0.90;;;;;;;21.38;78.92;101034.53;20898001;28;20063;-66
2023/06/30 09:31:30;;;;;;;1.15;0.50;;;;;;;21.42;78.34;101031.31;20946164;28;20132;-68
2023/06/30 09:41:32;;;;;;;1.77;0.70;;;;;;;21.43;77.16;101034.91;20967422;28;20056;-67
2023/06/30 09:51:34;;;;;;;2.08;0.70;;;;;;;21.44;76.56;101023.06;20966422;28;20045;-67
2023/06/30 10:01:36;;;;;;;2.10;0.90;;;;;;;21.50;77.19;101027.00;20926387;28;20044;-67
2023/06/30 10:11:39;;;;;;;2.05;0.70;;;;;;;21.53;76.92;101021.28;20948706;28;20053;-66
2023/06/30 10:21:41;;;;;;;1.45;0.70;;;;;;;21.53;76.56;101010.44;20972095;28;20135;-66
2023/06/30 10:31:43;;;;;;;1.50;0.63;;;;;;;21.51;76.85;101002.47;20970029;28;20052;-66
2023/06/30 10:41:49;;;;;;;1.27;0.60;;;;;;;21.49;76.63;101011.78;20947140;28;20055;-67
2023/06/30 10:51:51;;;;;;;0.90;0.80;;;;;;;21.45;75.08;101016.63;20952526;28;20049;-66
2023/06/30 11:02:18;;;;;;;1.58;0.73;;;;;;;21.45;74.27;101019.34;20964586;28;20094;-66
2023/06/30 11:12:23;;;;;;;1.00;0.70;;;;;;;21.48;73.88;100999.22;20936756;28;20056;-66
2023/06/30 11:22:25;;;;;;;1.08;0.60;;;;;;;21.51;73.44;100988.09;21021527;28;20040;-66
2023/06/30 11:32:32;;;;;;;1.58;0.60;;;;;;;21.57;72.77;100999.13;20957252;28;20544;-66
2023/06/30 11:42:39;;;;;;;1.05;0.73;;;;;;;21.57;72.32;100985.56;20943933;28;20049;-66
2023/06/30 11:52:41;;;;;;;0.70;0.60;;;;;;;21.58;71.99;100965.59;20933204;28;20088;-66
2023/06/30 12:02:47;;;;;;;0.73;0.63;;;;;;;21.59;71.49;100961.88;20974509;28;20529;-66
2023/06/30 12:12:56;;;;;;;0.70;0.52;;;;;;;21.60;71.52;100951.91;21013158;28;20052;-66
2023/06/30 12:22:59;;;;;;;1.50;0.90;;;;;;;21.59;70.94;100956.47;20919995;28;20049;-66
2023/06/30 12:33:01;;;;;;;0.88;0.60;;;;;;;21.61;70.42;100934.66;20983535;28;20481;-66
2023/06/30 12:43:04;;;;;;;1.17;0.65;;;;;;;21.64;70.24;100928.06;20960925;28;20111;-67
2023/06/30 12:53:07;;;;;;;1.17;0.60;;;;;;;21.66;70.23;100923.38;20936021;28;20045;-66
2023/06/30 13:03:10;;;;;;;1.40;0.70;;;;;;;21.66;69.85;100913.38;20950361;28;20135;-66
2023/06/30 13:13:12;;;;;;;1.58;0.80;;;;;;;21.70;69.69;100903.06;20943697;28;20128;-66
2023/06/30 13:23:13;;;;;;;3.15;1.10;;;;;;;21.72;69.48;100903.75;20941885;28;20045;-66
2023/06/30 13:33:33;;;;;;;1.10;0.70;;;;;;;21.73;69.66;100903.56;20923673;28;20044;-66
2023/06/30 13:43:34;;;;;;;1.35;0.63;;;;;;;21.74;70.01;100904.44;20938589;28;20072;-66
2023/06/30 13:53:36;;;;;;;1.42;0.80;;;;;;;21.66;69.94;100871.91;20939161;28;20071;-66
2023/06/30 14:03:40;;;;;;;2.20;0.50;;;;;;;21.74;69.67;100863.78;20911961;28;20060;-65
2023/06/30 14:13:41;;;;;;;3.90;1.00;;;;;;;21.73;69.49;100853.97;20936204;28;20338;-65
2023/06/30 14:23:43;;;;;;;0.65;0.55;;;;;;;21.71;70.06;100846.00;20938858;28;20041;-66
2023/06/30 14:33:45;;;;;;;0.50;0.50;;;;;;;21.68;69.97;100840.06;20939217;28;20449;-67
2023/06/30 14:43:46;;;;;;;1.27;0.98;;;;;;;21.68;70.18;100830.06;20936701;28;20409;-66
2023/06/30 14:53:48;;;;;;;1.70;0.70;;;;;;;21.68;70.50;100816.53;20940408;28;20053;-67
2023/06/30 15:03:50;;;;;;;0.70;0.63;;;;;;;21.67;70.46;100816.69;20920381;28;20550;-70
2023/06/30 15:13:51;;;;;;;2.47;1.20;;;;;;;21.67;71.11;100805.84;20934128;28;20235;-69
2023/06/30 15:23:53;;;;;;;1.50;0.80;;;;;;;21.69;71.28;100799.25;20934810;28;20136;-70
2023/06/30 15:33:55;;;;;;;2.95;2.22;;;;;;;21.71;71.66;100793.69;20925168;28;20123;-66
2023/06/30 15:43:57;;;;;;;8.18;6.93;;;;;;;21.73;72.40;100797.06;20900531;28;20045;-67
2023/06/30 15:53:58;;;;;;;8.30;7.50;;;;;;;21.78;74.91;100791.13;20908214;28;20060;-67
2023/06/30 16:04:00;;;;;;;5.40;4.90;;;;;;;21.86;76.03;100777.59;20890989;28;20049;-68
2023/06/30 16:14:02;;;;;;;6.45;4.05;;;;;;;21.93;75.92;100756.13;20901577;28;21323;-68
2023/06/30 16:24:03;;;;;;;3.30;3.00;;;;;;;21.92;74.85;100741.75;20914845;28;20131;-67
2023/06/30 16:34:05;;;;;;;2.63;2.30;;;;;;;21.88;73.74;100716.00;20922960;28;20045;-67
2023/06/30 16:44:07;;;;;;;2.33;1.92;;;;;;;21.85;73.07;100711.72;20937562;28;20090;-67
2023/06/30 16:54:08;;;;;;;2.22;1.65;;;;;;;21.83;72.24;100702.94;20934513;28;20056;-66
2023/06/30 17:04:10;;;;;;;2.00;1.60;;;;;;;21.83;71.75;100699.34;20926411;28;20049;-67
2023/06/30 17:14:12;;;;;;;1.88;1.60;;;;;;;21.77;71.60;100692.75;20943026;28;20048;-66
2023/06/30 17:24:14;;;;;;;2.47;1.60;;;;;;;21.71;70.97;100679.88;20953781;28;20501;-65
2023/06/30 17:34:15;;;;;;;1.40;1.25;;;;;;;21.66;71.12;100674.13;20953777;28;20048;-65
2023/06/30 17:44:19;;;;;;;2.22;1.52;;;;;;;21.59;70.71;100688.28;20969183;28;20500;-64
2023/06/30 17:54:22;;;;;;;1.47;1.30;;;;;;;21.56;71.11;100691.31;21026802;28;20048;-65
2023/06/30 18:04:24;;;;;;;1.50;1.27;;;;;;;21.53;71.86;100686.25;20927535;28;20063;-65
2023/06/30 18:14:29;;;;;;;1.73;1.30;;;;;;;21.46;71.88;100663.53;20962131;28;20079;-65
2023/06/30 18:24:31;;;;;;;2.70;1.27;;;;;;;21.47;71.85;100659.81;21017429;28;20048;-65
2023/06/30 18:34:33;;;;;;;1.80;1.27;;;;;;;21.45;71.80;100653.72;21002015;28;20109;-65
2023/06/30 18:44:36;;;;;;;2.53;1.58;;;;;;;21.42;72.19;100651.34;20966642;28;20470;-65
2023/06/30 18:54:38;;;;;;;2.30;1.30;;;;;;;21.38;72.16;100650.00;20981305;28;20063;-65
2023/06/30 19:04:40;;;;;;;2.05;1.30;;;;;;;21.37;72.67;100648.31;20992649;28;20102;-65
2023/06/30 19:14:41;;;;;;;2.10;1.70;;;;;;;21.35;72.83;100644.91;20992123;28;20098;-65
2023/06/30 19:24:43;;;;;;;1.58;1.25;;;;;;;21.32;74.03;100656.91;21036844;28;20566;-65
2023/06/30 19:34:45;;;;;;;1.23;1.08;;;;;;;21.32;74.02;100646.06;21074257;28;20044;-65
2023/06/30 19:44:47;;;;;;;1.20;1.08;;;;;;;21.30;74.20;100650.81;21072538;28;20568;-65
2023/06/30 19:54:49;;;;;;;1.60;1.15;;;;;;;21.28;73.82;100653.69;21073268;28;20048;-65
2023/06/30 20:04:52;;;;;;;1.40;1.10;;;;;;;21.27;73.05;100653.84;21071826;28;20059;-65
2023/06/30 20:14:57;;;;;;;1.92;1.10;;;;;;;21.25;72.54;100645.91;21070680;28;20056;-65
2023/06/30 20:24:58;;;;;;;1.42;1.05;;;;;;;21.24;72.41;100640.66;20961624;28;20048;-65
2023/06/30 20:35:00;;;;;;;1.42;1.08;;;;;;;21.23;72.16;100631.69;20950034;28;20510;-65
2023/06/30 20:45:02;;;;;;;1.33;1.00;;;;;;;21.12;72.52;100596.78;20984076;28;20052;-65
2023/06/30 20:55:04;;;;;;;1.00;0.85;;;;;;;21.15;72.10;100591.91;20984646;28;20094;-65
2023/06/30 21:05:06;;;;;;;1.02;0.93;;;;;;;21.18;72.01;100598.00;20982533;28;20178;-65
2023/06/30 21:15:08;;;;;;;1.10;1.00;;;;;;;21.16;71.83;100579.19;20964496;28;20044;-65
2023/06/30 21:25:11;;;;;;;1.48;0.90;;;;;;;21.13;71.31;100576.81;21058954;28;20508;-65
2023/06/30 21:35:12;;;;;;;1.88;0.80;;;;;;;21.11;71.08;100557.19;21066216;28;20048;-65
2023/06/30 21:45:14;;;;;;;1.10;0.80;;;;;;;21.10;70.57;100541.97;21066031;28;20429;-65
2023/06/30 21:55:16;;;;;;;1.50;0.90;;;;;;;21.08;70.00;100520.50;21065666;28;20121;-65
2023/06/30 22:05:18;;;;;;;1.92;0.95;;;;;;;21.04;69.59;100502.91;21064152;28;20600;-65
2023/06/30 22:15:21;;;;;;;1.58;1.10;;;;;;;21.04;69.14;100502.91;21048848;28;20047;-65
2023/06/30 22:25:23;;;;;;;3.15;1.20;;;;;;;21.03;68.45;100492.22;21063720;28;20059;-65
2023/06/30 22:35:25;;;;;;;2.15;1.00;;;;;;;21.00;68.17;100494.25;21075403;28;20044;-65
2023/06/30 22:45:28;;;;;;;2.28;1.02;;;;;;;20.99;67.91;100478.19;21078129;28;20048;-65
2023/06/30 22:55:30;;;;;;;1.48;1.20;;;;;;;20.98;67.75;100471.94;21077667;28;20048;-65
2023/06/30 23:05:32;;;;;;;1.55;1.20;;;;;;;20.96;67.63;100444.19;21075444;28;20040;-65
2023/06/30 23:15:33;;;;;;;2.42;1.20;;;;;;;20.94;67.49;100432.69;21069979;28;20047;-65
2023/06/30 23:25:37;;;;;;;1.00;0.88;;;;;;;20.92;67.35;100418.50;21074870;28;20109;-65
2023/06/30 23:35:38;;;;;;;2.73;1.47;;;;;;;20.92;67.24;100402.25;21074880;28;20189;-65
2023/06/30 23:45:40;;;;;;;1.25;0.82;;;;;;;20.90;67.17;100388.06;21071253;28;20048;-65
2023/06/30 23:55:42;;;;;;;1.75;1.00;;;;;;;20.89;67.09;100380.97;21072976;28;20567;-65
